METAR stanice u blizini

 

LYBE - Beograd / Surčin, Srbija
Ažurirano: 19/09/2019 14:30
Vedro
Vedro
 Pravac vetra SZ
Vetar: SZ 7 km/h
Temperatura: 17°C
Tačka rose: 4°C
Vlažnost: 42%
Pritisak: 1024 hPa
Pregled: Vedro
Vidljivost: greater than 10 km
2019/09/19 12:30 LYBE 191230Z 31004KT 240V010 CAVOK 17/04 Q1024 NOSIG
LYBT - Beograd / Batajnica, Srbija
Ažurirano: 19/09/2019 14:30
Vedro
Vedro
 Pravac vetra SZ
Vetar: SZ 11 km/h
Temperatura: 18°C
Tačka rose: 1°C
Vlažnost: 32%
Pritisak: 1023 hPa
Pregled: Vedro
Vidljivost: greater than 10 km
2019/09/19 12:30 LYBT 191230Z 32006KT 280V010 CAVOK 18/01 Q1023 NOSIG
LYVR - Vršac, Srbija
Ažurirano: 19/09/2019 14:30
Vedro
Vedro
 Pravac vetra SSZ
Vetar: SSZ 20 km/h
Temperatura: 19°C
Tačka rose: 1°C
Vlažnost: 30%
Pritisak: 1022 hPa
Pregled: Vedro
Vidljivost: greater than 10 km
2019/09/19 12:30 LYVR 191230Z 34011KT CAVOK 19/01 Q1022 NOSIG
 
LYKV - Lađevci, Srbija
Ažurirano: 19/09/2019 14:30
Mostly Cloudy
Mostly Cloudy
 Pravac vetra varies
Vetar: varies 2 km/h
Temperatura: 15°C
Tačka rose: 8°C
Vlažnost: 63%
Pritisak: 1023 hPa
Oblaci: Mostly Cloudy
Vidljivost: 10 km
Cloud details: Mostly Cloudy 2134 m
2019/09/19 12:30 LYKV 191230Z VRB01KT 9999 BKN070 15/08 Q1023 NOSIG
LYNI - Niš, Srbija
Ažurirano: 19/09/2019 14:30
Oblačno
Oblačno
 Pravac vetra SZ
Vetar: SZ 7 km/h
Temperatura: 13°C
Tačka rose: 8°C
Vlažnost: 72%
Pritisak: 1023 hPa
Oblaci: Oblačno
Vidljivost: 10 km
Cloud details: Oblačno 2134 m
2019/09/19 12:30 LYNI 191230Z 32004KT 280V010 9999 OVC070 13/08 Q1023 NOSIG
BKPR - Priština, Srbija
Ažurirano: 19/09/2019 15:00
Mostly Cloudy
Mostly Cloudy
 Pravac vetra SI
Vetar: SI 9 km/h
Temperatura: 13°C
Tačka rose: 6°C
Vlažnost: 63%
Pritisak: 1022 hPa
Oblaci: Mostly Cloudy
Vidljivost: 10 km
Cloud details: Few Clouds 1219 m
Mostly Cloudy 2438 m
2019/09/19 13:00 BKPR 191300Z 04005KT 360V080 9999 FEW040 BKN080 13/06 Q1022 NOSIG
 
LHPP - Pecs / Pogany, Hungary
Ažurirano: 19/09/2019 14:15
Vedro
Vedro
 Pravac vetra S
Vetar: S 17 km/h
Temperatura: 19°C
Tačka rose: 3°C
Vlažnost: 35%
Pritisak: 1024 hPa
Pregled: Vedro
Vidljivost: greater than 10 km
2019/09/19 12:15 LHPP 191215Z 36009KT CAVOK 19/03 Q1024
LHUD - Szeged, Hungary
Ažurirano: 04/07/2019 01:45
NOT Current
Vedro
Vedro
 Pravac vetra S
Vetar: S 7 km/h
Temperatura: 18°C
Tačka rose: 13°C
Vlažnost: 73%
Pritisak: 1019 hPa
Pregled: Vedro
Vidljivost: greater than 10 km
2019/07/03 23:45 LHUD 032345Z 35004KT CAVOK 18/13 Q1019
LRTR - Timisoara, Romania
Ažurirano: 19/09/2019 14:30
Vedro
Vedro
 Pravac vetra SSZ
Vetar: SSZ 19 km/h
Temperatura: 19°C
Tačka rose: -1°C
Vlažnost: 26%
Pritisak: 1022 hPa
Pregled: Vedro
Vidljivost: greater than 10 km
2019/09/19 12:30 LRTR 191230Z 33010KT 300V360 CAVOK 19/M01 Q1022 WS RWY29
 
LRCV - Craiova, Romania
Ažurirano: 19/09/2019 14:30
Vedro
Vedro
 Pravac vetra JZ
Vetar: JZ 9 km/h
Temperatura: 21°C
Tačka rose: 2°C
Vlažnost: 29%
Pritisak: 1019 hPa
Pregled: Vedro
Vidljivost: greater than 10 km
2019/09/19 12:30 LRCV 191230Z 23005KT 190V270 CAVOK 21/02 Q1019
LBSF - Sofia, Bulgaria
Ažurirano: 19/09/2019 14:30
Oblačno
Oblačno
 Pravac vetra ZSZ
Vetar: ZSZ 7 km/h
Temperatura: 12°C
Tačka rose: 7°C
Vlažnost: 72%
Pritisak: 1022 hPa
Oblaci: Oblačno
Vidljivost: 10 km
Cloud details: Mostly Cloudy 1341 m
Oblačno 1524 m
2019/09/19 12:30 LBSF 191230Z 29004KT 250V330 9999 BKN044 OVC050 12/07 Q1022 NOSIG
LWSK - Skoplje, Makedonija
Ažurirano: 19/09/2019 15:00
Vedro
Vedro
 Pravac vetra SSI
Vetar: SSI 30 km/h
Temperatura: 22°C
Tačka rose: 3°C
Vlažnost: 29%
Pritisak: 1019 hPa
Pregled: Vedro
Vidljivost: greater than 10 km
2019/09/19 13:00 LWSK 191300Z 02016KT CAVOK 22/03 Q1019 NOSIG
 
LYPG - Podgorica, Crna Gora
Ažurirano: 19/09/2019 14:30
Slaba kiša, Oblačno
Slaba kiša, Oblačno
 Pravac vetra Z
Vetar: Z 7 km/h
Temperatura: 22°C
Tačka rose: 13°C
Vlažnost: 57%
Pritisak: 1017 hPa
Pregled: Light Rain
Oblaci: Oblačno
Vidljivost: 10 km
Cloud details: Few Clouds 1006 m
Partly Cloudy 1219 m
Oblačno 2438 m
2019/09/19 12:30 LYPG 191230Z 26004KT 230V300 9999 -RA FEW033 SCT040 OVC080 22/13 Q1017 TEMPO SHRA FEW033TCU SCT040 BKN080
LQSA - Sarajevo, Bosna i Hercegovina
Ažurirano: 19/09/2019 14:30
Mostly Cloudy
Mostly Cloudy
 Pravac vetra IJI
Vetar: IJI 11 km/h
Temperatura: 15°C
Tačka rose: 6°C
Vlažnost: 55%
Pritisak: 1023 hPa
Oblaci: Mostly Cloudy
Vidljivost: 10 km
Cloud details: Few Clouds 1219 m
Mostly Cloudy 1676 m
2019/09/19 12:30 LQSA 191230Z 12006KT 070V170 9999 FEW040 BKN055 15/06 Q1023 NOSIG
LDOS - Osijek, Hrvatksa
Ažurirano: 19/09/2019 14:30
Vedro
Vedro
 Pravac vetra S
Vetar: S 17 km/h
Temperatura: 19°C
Tačka rose: 4°C
Vlažnost: 37%
Pritisak: 1024 hPa
Pregled: Vedro
Vidljivost: greater than 10 km
2019/09/19 12:30 LDOS 191230Z 01009KT 330V060 CAVOK 19/04 Q1024